Time;durP1;ratioP1;P1;durP2;ratioP2;P2;SDS_P1;SDS_P2;PMS_P1;PMS_P2;Temp;Humidity;BMP_temperature;BMP_pressure;BME280_temperature;BME280_humidity;BME280_pressure;Samples;Min_cycle;Max_cycle;Signal;HPM_P1;HPM_P2
2022/06/05 00:02:11;;;;;;;18.15;14.15;;;19.80;99.90;;;;;;4234845;27;20047;-64
2022/06/05 00:04:24;;;;;;;17.55;14.02;;;19.70;99.90;;;;;;4239518;28;20057;-64
2022/06/05 00:06:44;;;;;;;22.10;17.48;;;19.80;99.90;;;;;;4241349;28;20122;-66
2022/06/05 00:09:20;;;;;;;25.10;22.40;;;19.80;99.90;;;;;;4238062;27;20912;-63
2022/06/05 00:11:23;;;;;;;19.00;16.38;;;19.80;99.90;;;;;;4233818;27;20445;-64
2022/06/05 00:13:52;;;;;;;20.02;15.90;;;19.80;99.90;;;;;;4223367;28;20096;-64
2022/06/05 00:15:54;;;;;;;18.27;14.20;;;19.80;99.90;;;;;;4222871;28;20893;-64
2022/06/05 00:17:55;;;;;;;20.15;14.55;;;19.80;99.90;;;;;;4223139;28;20264;-64
2022/06/05 00:19:56;;;;;;;20.88;16.90;;;19.80;99.90;;;;;;4223339;28;20028;-64
2022/06/05 00:21:57;;;;;;;20.80;16.92;;;19.80;99.90;;;;;;4226666;28;20038;-64
2022/06/05 00:23:58;;;;;;;23.92;18.63;;;19.80;99.90;;;;;;4240722;27;20081;-65
2022/06/05 00:26:38;;;;;;;19.42;14.93;;;19.80;99.90;;;;;;4239305;28;20486;-63
2022/06/05 00:29:01;;;;;;;18.80;14.67;;;19.80;99.90;;;;;;4171480;28;20091;-64
2022/06/05 00:31:23;;;;;;;21.98;14.38;;;19.80;99.90;;;;;;4238906;27;20054;-64
2022/06/05 00:33:34;;;;;;;16.45;13.80;;;19.80;99.90;;;;;;4237400;28;20111;-62
2022/06/05 00:35:44;;;;;;;16.05;13.50;;;19.80;99.90;;;;;;4240390;28;20047;-64
2022/06/05 00:37:51;;;;;;;;;;;19.80;99.90;;;;;;4240084;28;20027;-67
2022/06/05 00:39:55;;;;;;;15.18;13.48;;;19.80;99.90;;;;;;4239933;28;20038;-65
2022/06/05 00:42:01;;;;;;;16.50;12.73;;;19.80;99.90;;;;;;4237671;28;20027;-64
2022/06/05 00:44:05;;;;;;;30.95;25.80;;;19.80;99.90;;;;;;4239968;27;20091;-66
2022/06/05 00:46:06;;;;;;;33.88;19.00;;;19.80;99.90;;;;;;4240270;28;20760;-66
2022/06/05 00:48:08;;;;;;;26.38;20.20;;;19.80;99.90;;;;;;4239544;28;20514;-63
2022/06/05 00:50:17;;;;;;;30.05;19.73;;;19.80;99.90;;;;;;4240568;28;20076;-64
2022/06/05 00:52:21;;;;;;;29.92;17.48;;;19.70;99.90;;;;;;4237579;28;20035;-67
2022/06/05 00:54:22;;;;;;;19.00;13.85;;;19.70;99.90;;;;;;4240407;27;20028;-63
2022/06/05 00:56:23;;;;;;;24.58;17.13;;;19.60;99.90;;;;;;4238684;28;20116;-66
2022/06/05 00:58:24;;;;;;;21.85;15.25;;;19.60;99.90;;;;;;4240007;27;20031;-63
2022/06/05 01:00:38;;;;;;;18.45;15.20;;;19.60;99.90;;;;;;4239459;28;20035;-66
2022/06/05 01:02:45;;;;;;;17.95;13.73;;;19.60;99.90;;;;;;4241752;27;20547;-63
2022/06/05 01:04:49;;;;;;;21.77;17.55;;;19.60;99.90;;;;;;4241906;27;20035;-64
2022/06/05 01:06:52;;;;;;;22.08;17.55;;;19.50;99.90;;;;;;4230740;27;20089;-65
2022/06/05 01:08:53;;;;;;;20.83;16.00;;;19.50;99.90;;;;;;4227814;27;20042;-63
2022/06/05 01:11:13;;;;;;;18.00;15.93;;;19.50;99.90;;;;;;4243243;27;20031;-63
2022/06/05 01:13:28;;;;;;;25.05;18.42;;;19.50;99.90;;;;;;4241806;27;20079;-65
2022/06/05 01:15:50;;;;;;;20.00;15.55;;;19.50;99.90;;;;;;4239517;27;20646;-64
2022/06/05 01:18:15;;;;;;;19.20;14.73;;;19.50;99.90;;;;;;4242055;27;20471;-67
2022/06/05 01:20:41;;;;;;;18.85;15.32;;;19.50;99.90;;;;;;4243096;27;20452;-65
2022/06/05 01:23:03;;;;;;;18.95;14.80;;;19.50;99.90;;;;;;4242529;27;20463;-65
2022/06/05 01:25:32;;;;;;;21.75;15.60;;;19.40;99.90;;;;;;4242292;27;20031;-64
2022/06/05 01:27:38;;;;;;;22.33;17.33;;;19.40;99.90;;;;;;4243496;27;20024;-63
2022/06/05 01:30:02;;;;;;;22.50;17.25;;;19.40;99.90;;;;;;4239409;27;20023;-65
2022/06/05 01:32:10;;;;;;;19.55;15.05;;;19.30;99.90;;;;;;4226681;28;20089;-65
2022/06/05 01:34:23;;;;;;;23.85;16.98;;;19.30;99.90;;;;;;4224648;28;20081;-66
2022/06/05 01:36:42;;;;;;;23.60;17.73;;;19.30;99.90;;;;;;4225402;28;20081;-63
2022/06/05 01:39:09;;;;;;;26.30;21.35;;;19.30;99.90;;;;;;4225802;27;20433;-64
2022/06/05 01:41:16;;;;;;;23.83;17.75;;;19.30;99.90;;;;;;4225974;28;20140;-64
2022/06/05 01:43:29;;;;;;;23.90;17.65;;;19.30;99.90;;;;;;4224663;28;20083;-64
2022/06/05 01:45:36;;;;;;;18.17;15.07;;;19.30;99.90;;;;;;4225968;27;20035;-64
2022/06/05 01:47:46;;;;;;;27.65;22.23;;;19.30;99.90;;;;;;4224242;28;20552;-68
2022/06/05 01:50:16;;;;;;;35.00;26.75;;;19.20;99.90;;;;;;4209095;28;20052;-63
2022/06/05 01:52:23;;;;;;;28.20;22.85;;;19.20;99.90;;;;;;4207856;28;20894;-64
2022/06/05 01:54:48;;;;;;;33.42;25.42;;;19.20;99.90;;;;;;4208547;28;20032;-64
2022/06/05 01:56:53;;;;;;;39.70;26.30;;;19.20;99.90;;;;;;4155177;28;20430;-66
2022/06/05 01:59:05;;;;;;;36.58;28.50;;;19.20;99.90;;;;;;4182236;28;20667;-64
2022/06/05 02:01:19;;;;;;;28.48;22.80;;;19.20;99.90;;;;;;4207815;28;20028;-63
2022/06/05 02:03:26;;;;;;;23.35;16.50;;;19.20;99.90;;;;;;4241816;27;20502;-64
2022/06/05 02:05:36;;;;;;;23.20;19.02;;;19.20;99.90;;;;;;4241204;27;20027;-65
2022/06/05 02:07:47;;;;;;;30.38;23.42;;;19.20;99.90;;;;;;4239131;27;20038;-64
2022/06/05 02:10:13;;;;;;;27.77;20.13;;;19.20;99.90;;;;;;4224161;28;20497;-65
2022/06/05 02:12:14;;;;;;;32.75;24.75;;;19.20;99.90;;;;;;4239945;27;20035;-65
2022/06/05 02:14:16;;;;;;;34.55;27.55;;;19.20;99.90;;;;;;4240663;27;20035;-64
2022/06/05 02:16:17;;;;;;;44.95;30.38;;;19.20;99.90;;;;;;4242624;27;20902;-66
2022/06/05 02:18:19;;;;;;;31.23;24.85;;;19.20;99.90;;;;;;4230724;27;20819;-66
2022/06/05 02:20:20;;;;;;;39.72;27.42;;;19.10;99.90;;;;;;4225385;28;20032;-65
2022/06/05 02:22:26;;;;;;;39.83;28.05;;;19.20;99.90;;;;;;4224214;28;20036;-66
2022/06/05 02:24:27;;;;;;;30.48;24.42;;;19.10;99.90;;;;;;4225425;28;20031;-67
2022/06/05 02:26:29;;;;;;;27.50;20.42;;;19.10;99.90;;;;;;4236108;27;20559;-66
2022/06/05 02:28:30;;;;;;;21.25;17.10;;;19.10;99.90;;;;;;4242874;27;20031;-64
2022/06/05 02:31:07;;;;;;;26.38;20.70;;;19.10;99.90;;;;;;4240192;27;20038;-64
2022/06/05 02:33:23;;;;;;;27.20;20.58;;;19.10;99.90;;;;;;4230950;27;20491;-65
2022/06/05 02:35:41;;;;;;;29.77;22.02;;;19.00;99.90;;;;;;4238971;27;20035;-65
2022/06/05 02:38:01;;;;;;;30.17;20.42;;;19.00;99.90;;;;;;4241927;27;20061;-66
2022/06/05 02:40:17;;;;;;;25.27;19.65;;;19.00;99.90;;;;;;4240814;27;20071;-63
2022/06/05 02:42:36;;;;;;;24.80;20.77;;;19.00;99.90;;;;;;4242094;27;20104;-67
2022/06/05 02:44:49;;;;;;;23.10;14.57;;;19.00;99.90;;;;;;4240789;27;20423;-65
2022/06/05 02:47:11;;;;;;;23.27;18.20;;;18.90;99.90;;;;;;4241761;27;20024;-64
2022/06/05 02:49:21;;;;;;;24.73;16.88;;;18.90;99.90;;;;;;4240812;27;20039;-66
2022/06/05 02:51:28;;;;;;;20.95;13.73;;;18.90;99.90;;;;;;4207693;28;20108;-65
2022/06/05 02:53:53;;;;;;;16.30;13.38;;;18.90;99.90;;;;;;4207037;28;20545;-65
2022/06/05 02:55:54;;;;;;;19.83;15.30;;;18.90;99.90;;;;;;4206987;28;20043;-65
2022/06/05 02:57:56;;;;;;;16.58;13.77;;;18.90;99.90;;;;;;4211608;27;20080;-64
2022/06/05 02:59:58;;;;;;;20.23;15.23;;;18.90;99.90;;;;;;4224029;28;20039;-64
2022/06/05 03:04:18;;;;;;;21.03;15.77;;;18.90;99.90;;;;;;4224387;28;20069;-62
2022/06/05 03:06:19;;;;;;;32.65;26.40;;;19.00;99.90;;;;;;4223457;28;20324;-67
2022/06/05 03:08:21;;;;;;;27.05;21.10;;;19.00;99.90;;;;;;4224219;28;20035;-65
2022/06/05 03:10:23;;;;;;;24.83;21.08;;;19.00;99.90;;;;;;4223114;28;20614;-64
2022/06/05 03:12:24;;;;;;;29.50;24.02;;;19.00;99.90;;;;;;4223834;27;20035;-63
2022/06/05 03:14:25;;;;;;;22.80;17.73;;;19.00;99.90;;;;;;4223360;27;20372;-64
2022/06/05 03:16:30;;;;;;;19.75;14.43;;;19.00;99.90;;;;;;4224337;28;20080;-63
2022/06/05 03:18:31;;;;;;;19.65;13.93;;;19.10;99.90;;;;;;4229989;27;20023;-65
2022/06/05 03:20:33;;;;;;;16.23;11.93;;;19.20;99.90;;;;;;4241347;27;20085;-63
2022/06/05 03:22:35;;;;;;;15.82;11.20;;;19.50;99.90;;;;;;4237903;27;20085;-66
2022/06/05 03:24:36;;;;;;;17.95;12.63;;;19.60;99.90;;;;;;4238246;27;20064;-64
2022/06/05 03:26:37;;;;;;;16.98;13.50;;;19.60;99.90;;;;;;4239659;27;20192;-63
2022/06/05 03:28:39;;;;;;;18.35;14.68;;;19.60;99.90;;;;;;4240127;27;20478;-64
2022/06/05 03:30:42;;;;;;;17.77;14.05;;;19.80;99.90;;;;;;4225956;27;20156;-64
2022/06/05 03:32:44;;;;;;;13.38;10.50;;;20.00;99.90;;;;;;4224186;27;20475;-64
2022/06/05 03:34:45;;;;;;;12.48;9.02;;;20.30;99.90;;;;;;4223355;28;20020;-65
2022/06/05 03:36:47;;;;;;;10.55;8.50;;;20.50;99.90;;;;;;4223164;28;20099;-64
2022/06/05 03:38:48;;;;;;;12.70;8.68;;;20.90;99.90;;;;;;4223048;28;20512;-64
2022/06/05 03:40:49;;;;;;;9.55;7.65;;;21.20;99.90;;;;;;4223823;27;20036;-63
2022/06/05 03:42:50;;;;;;;8.25;7.45;;;21.30;99.90;;;;;;4224070;28;20112;-64
2022/06/05 03:44:53;;;;;;;10.70;8.27;;;21.40;99.90;;;;;;4222973;28;20039;-64
2022/06/05 03:46:54;;;;;;;10.95;8.73;;;21.50;99.90;;;;;;4235324;27;20095;-63
2022/06/05 03:48:55;;;;;;;9.32;7.35;;;21.60;99.90;;;;;;4227631;28;20035;-64
2022/06/05 03:50:56;;;;;;;9.93;8.15;;;21.40;99.90;;;;;;4224835;28;20040;-64
2022/06/05 03:52:58;;;;;;;11.00;7.65;;;21.30;99.90;;;;;;4222572;28;20031;-63
2022/06/05 03:55:00;;;;;;;9.93;7.20;;;21.10;99.90;;;;;;4224007;28;20398;-63
2022/06/05 03:57:03;;;;;;;13.77;8.13;;;21.00;99.90;;;;;;4222588;28;20043;-63
2022/06/05 03:59:04;;;;;;;9.30;7.38;;;21.00;99.90;;;;;;4230124;28;20031;-64
2022/06/05 04:01:13;;;;;;;8.38;7.05;;;20.90;99.90;;;;;;4238010;27;20026;-64
2022/06/05 04:03:14;;;;;;;8.35;6.95;;;20.90;99.90;;;;;;4241239;28;20084;-64
2022/06/05 04:05:20;;;;;;;8.60;7.18;;;21.00;99.90;;;;;;4240240;28;20083;-63
2022/06/05 04:07:21;;;;;;;8.27;6.07;;;21.30;99.90;;;;;;4240372;27;20068;-65
2022/06/05 04:09:22;;;;;;;7.20;6.35;;;21.40;99.90;;;;;;4238342;28;20076;-64
2022/06/05 04:11:24;;;;;;;8.90;6.60;;;21.40;99.90;;;;;;4240563;28;20421;-65
2022/06/05 04:13:25;;;;;;;7.35;6.28;;;21.10;99.90;;;;;;4240231;27;20088;-64
2022/06/05 04:15:26;;;;;;;12.50;6.47;;;21.10;99.90;;;;;;4237502;28;20043;-64
2022/06/05 04:17:28;;;;;;;7.40;6.15;;;21.10;99.90;;;;;;4228361;27;20043;-65
2022/06/05 04:19:29;;;;;;;8.50;6.35;;;21.00;99.90;;;;;;4222006;28;20092;-66
2022/06/05 04:21:33;;;;;;;7.60;6.80;;;20.90;99.90;;;;;;4205334;28;20040;-64
2022/06/05 04:23:35;;;;;;;7.88;7.07;;;20.90;99.90;;;;;;4229342;28;20449;-65
2022/06/05 04:25:36;;;;;;;8.38;7.30;;;20.80;99.90;;;;;;4241195;28;20407;-65
2022/06/05 04:27:37;;;;;;;8.48;6.40;;;20.50;99.90;;;;;;4239773;27;20100;-65
2022/06/05 04:29:40;;;;;;;8.70;7.47;;;20.20;99.90;;;;;;4238874;27;20032;-65
2022/06/05 04:31:45;;;;;;;10.80;8.10;;;19.90;99.90;;;;;;4239200;27;20035;-65
2022/06/05 04:33:47;;;;;;;13.73;8.68;;;19.80;99.90;;;;;;4241274;27;20027;-65
2022/06/05 04:35:48;;;;;;;15.35;8.18;;;19.70;99.90;;;;;;4239281;27;20092;-64
2022/06/05 04:37:49;;;;;;;16.95;9.50;;;19.70;99.90;;;;;;4242563;27;20079;-64
2022/06/05 04:39:51;;;;;;;12.88;9.68;;;19.70;99.90;;;;;;4242857;27;20027;-63
2022/06/05 04:41:52;;;;;;;10.52;8.63;;;19.90;99.90;;;;;;4243037;27;20091;-65
2022/06/05 04:43:55;;;;;;;8.73;7.72;;;20.10;99.90;;;;;;4242805;27;20035;-64
2022/06/05 04:45:56;;;;;;;13.40;7.30;;;20.30;99.90;;;;;;4225951;28;20097;-68
2022/06/05 04:47:57;;;;;;;10.40;7.30;;;20.40;99.90;;;;;;4226453;28;20073;-65
2022/06/05 04:49:58;;;;;;;11.02;8.95;;;20.50;99.90;;;;;;4224063;28;20036;-64
2022/06/05 04:51:59;;;;;;;12.07;10.75;;;20.50;99.90;;;;;;4226798;28;20027;-64
2022/06/05 04:54:01;;;;;;;9.82;8.68;;;20.70;99.90;;;;;;4225074;28;20040;-65
2022/06/05 04:56:04;;;;;;;14.45;9.27;;;21.10;99.90;;;;;;4236913;27;20116;-65
2022/06/05 04:58:05;;;;;;;9.43;7.88;;;21.40;99.90;;;;;;4242583;27;20107;-66
2022/06/05 05:00:07;;;;;;;9.40;7.72;;;21.80;99.90;;;;;;4243141;27;20039;-65
2022/06/05 05:02:09;;;;;;;7.18;5.57;;;22.30;99.90;;;;;;4241611;27;20077;-64
2022/06/05 05:04:14;;;;;;;13.07;9.60;;;22.70;99.90;;;;;;4243058;27;20080;-64
2022/06/05 05:06:15;;;;;;;5.55;5.03;;;23.20;99.90;;;;;;4241203;27;20472;-65
2022/06/05 05:08:16;;;;;;;6.10;4.78;;;23.30;99.90;;;;;;4243276;27;20518;-63
2022/06/05 05:10:17;;;;;;;5.95;4.95;;;23.20;99.90;;;;;;4241972;27;20064;-63
2022/06/05 05:12:18;;;;;;;8.43;5.47;;;23.10;99.90;;;;;;4240386;27;20555;-66
2022/06/05 05:14:19;;;;;;;5.38;4.72;;;23.00;99.90;;;;;;4241958;27;20023;-67
2022/06/05 05:16:21;;;;;;;7.10;4.50;;;23.20;99.90;;;;;;4230470;27;20105;-63
2022/06/05 05:18:23;;;;;;;4.53;3.83;;;23.50;99.90;;;;;;4225622;28;20028;-63
2022/06/05 05:20:26;;;;;;;4.25;3.85;;;23.70;99.90;;;;;;4224637;27;20081;-63
2022/06/05 05:22:27;;;;;;;4.45;4.03;;;23.90;99.90;;;;;;4225508;28;20654;-63
2022/06/05 05:24:28;;;;;;;4.97;4.30;;;23.80;99.90;;;;;;4225490;27;20035;-65
2022/06/05 05:26:32;;;;;;;3.80;3.50;;;23.50;99.90;;;;;;4226173;28;20085;-64
2022/06/05 05:28:33;;;;;;;4.85;3.95;;;23.20;99.90;;;;;;4225302;28;20035;-63
2022/06/05 05:30:35;;;;;;;7.40;6.30;;;23.10;99.90;;;;;;4225478;28;20448;-64
2022/06/05 05:32:37;;;;;;;4.50;4.10;;;23.10;99.90;;;;;;4224330;28;20036;-64
2022/06/05 05:34:38;;;;;;;4.07;3.67;;;23.20;99.90;;;;;;4226010;28;20031;-64
2022/06/05 05:36:41;;;;;;;5.53;4.63;;;23.50;99.90;;;;;;4224313;28;20043;-67
2022/06/05 05:42:04;;;;;;;7.97;4.97;;;23.50;99.90;;;;;;4233768;27;20023;-66
2022/06/05 05:43:23;;;;;;;8.75;5.75;;;23.50;99.90;;;;;;4225951;28;20039;-65
2022/06/05 05:45:25;;;;;;;4.60;4.18;;;23.80;99.90;;;;;;4232606;27;20483;-67
2022/06/05 05:47:31;;;;;;;5.32;4.40;;;24.00;99.90;;;;;;4241065;27;20103;-63
2022/06/05 05:49:33;;;;;;;4.78;4.10;;;24.20;99.90;;;;;;4241335;27;20044;-64
2022/06/05 05:51:34;;;;;;;6.20;4.72;;;24.80;99.90;;;;;;4238386;27;20084;-65
2022/06/05 05:53:35;;;;;;;5.18;4.63;;;24.90;99.90;;;;;;4227926;27;20084;-63
2022/06/05 05:55:37;;;;;;;3.88;3.58;;;25.20;99.90;;;;;;4241986;27;20039;-65
2022/06/05 05:57:39;;;;;;;3.90;3.50;;;;;;;;;;4241200;27;20107;-64
2022/06/05 05:59:41;;;;;;;5.82;4.00;;;;;;;;;;4241629;27;20049;-65
2022/06/05 06:01:42;;;;;;;4.85;3.30;;;25.30;99.90;;;;;;4241733;27;20095;-64
2022/06/05 06:03:44;;;;;;;3.85;3.45;;;26.20;99.90;;;;;;4241286;27;20027;-65
2022/06/05 06:05:45;;;;;;;4.07;3.70;;;26.40;99.90;;;;;;4241436;27;20882;-65
2022/06/05 06:07:46;;;;;;;9.52;4.63;;;26.80;99.90;;;;;;4239967;27;20039;-66
2022/06/05 06:09:49;;;;;;;10.02;6.43;;;26.80;99.90;;;;;;4229729;27;21117;-65
2022/06/05 06:11:50;;;;;;;7.65;4.07;;;26.50;99.90;;;;;;4223240;28;20024;-65
2022/06/05 06:13:51;;;;;;;8.40;3.88;;;25.80;99.90;;;;;;4225294;28;20084;-63
2022/06/05 06:15:52;;;;;;;33.13;7.57;;;25.50;99.90;;;;;;4223442;28;20168;-63
2022/06/05 06:17:54;;;;;;;24.58;7.80;;;25.00;99.90;;;;;;4224945;28;20032;-64
2022/06/05 06:19:55;;;;;;;10.50;3.17;;;24.40;99.90;;;;;;4223533;28;20829;-65
2022/06/05 06:21:56;;;;;;;64.18;11.88;;;24.00;99.90;;;;;;4224915;28;20509;-63
2022/06/05 06:23:57;;;;;;;28.30;7.85;;;23.80;99.90;;;;;;4229386;27;20039;-63
2022/06/05 06:25:58;;;;;;;10.77;3.72;;;24.10;99.90;;;;;;4241047;27;20039;-64
2022/06/05 06:27:59;;;;;;;16.08;4.65;;;24.40;99.90;;;;;;4240876;27;20039;-64
2022/06/05 06:30:01;;;;;;;15.35;4.47;;;24.10;99.90;;;;;;4224992;27;20098;-63
2022/06/05 06:32:03;;;;;;;5.88;3.08;;;24.10;99.90;;;;;;4223690;28;20434;-64
2022/06/05 06:34:05;;;;;;;10.48;5.07;;;24.20;99.90;;;;;;4224926;27;20028;-64
2022/06/05 06:36:09;;;;;;;37.40;7.57;;;24.50;99.90;;;;;;4241081;27;20034;-63
2022/06/05 06:38:10;;;;;;;51.80;11.32;;;24.50;99.90;;;;;;4240057;27;20515;-65
2022/06/05 06:40:11;;;;;;;6.53;4.47;;;24.60;99.90;;;;;;4241196;27;20867;-63
2022/06/05 06:42:12;;;;;;;4.57;3.67;;;24.60;99.90;;;;;;4239813;27;20039;-63
2022/06/05 06:44:14;;;;;;;4.45;3.25;;;24.80;99.90;;;;;;4241230;27;20039;-64
2022/06/05 06:46:17;;;;;;;7.57;3.58;;;25.40;99.90;;;;;;4240195;27;20154;-62
2022/06/05 06:48:18;;;;;;;17.92;4.07;;;26.00;99.90;;;;;;4239979;27;20454;-63
2022/06/05 06:50:19;;;;;;;36.72;6.85;;;26.00;99.90;;;;;;4223767;27;20744;-63
2022/06/05 06:52:20;;;;;;;17.02;5.15;;;25.60;99.90;;;;;;4229597;27;20084;-63
2022/06/05 06:54:21;;;;;;;10.68;4.40;;;25.40;99.90;;;;;;4239500;27;20046;-64
2022/06/05 06:56:26;;;;;;;7.13;3.42;;;25.60;99.90;;;;;;4237064;27;20035;-64
2022/06/05 06:58:27;;;;;;;7.55;2.60;;;25.90;99.90;;;;;;4239437;27;20031;-64
2022/06/05 07:00:28;;;;;;;5.50;3.10;;;26.00;99.90;;;;;;4239445;27;20088;-63
2022/06/05 07:02:29;;;;;;;32.67;6.35;;;26.10;99.90;;;;;;4238447;27;20437;-65
2022/06/05 07:04:31;;;;;;;26.83;6.75;;;26.10;99.90;;;;;;4239191;27;20031;-64
2022/06/05 07:06:32;;;;;;;7.72;2.97;;;26.30;99.90;;;;;;4240857;27;20076;-65
2022/06/05 07:08:34;;;;;;;15.75;4.03;;;26.70;99.90;;;;;;4225492;27;20039;-65
2022/06/05 07:10:37;;;;;;;5.20;2.80;;;27.20;99.90;;;;;;4222347;27;20519;-64
2022/06/05 07:12:38;;;;;;;4.97;2.45;;;27.40;99.90;;;;;;4222576;28;20051;-65
2022/06/05 07:14:39;;;;;;;4.55;1.83;;;27.00;99.90;;;;;;4223933;28;20085;-64
2022/06/05 07:16:40;;;;;;;1.80;1.40;;;26.40;99.90;;;;;;4223247;28;20116;-64
2022/06/05 07:18:42;;;;;;;36.90;7.28;;;26.60;99.90;;;;;;4224689;28;20024;-63
2022/06/05 07:20:45;;;;;;;4.47;2.60;;;26.90;99.90;;;;;;4222820;28;20028;-63
2022/06/05 07:22:46;;;;;;;8.52;2.30;;;26.80;99.90;;;;;;4224275;28;20036;-65
2022/06/05 07:24:47;;;;;;;6.55;2.55;;;26.80;99.90;;;;;;4222745;28;20073;-64
2022/06/05 07:26:48;;;;;;;2.47;1.48;;;26.80;99.90;;;;;;4222429;27;20039;-64
2022/06/05 07:28:50;;;;;;;6.10;1.58;;;26.70;99.90;;;;;;4239756;27;20076;-64
2022/06/05 07:30:52;;;;;;;2.15;1.80;;;26.80;99.90;;;;;;4231204;27;20035;-64
2022/06/05 07:32:53;;;;;;;3.22;1.77;;;27.10;99.90;;;;;;4222586;28;20127;-64
2022/06/05 07:34:54;;;;;;;7.53;1.83;;;27.30;99.90;;;;;;4223523;28;20085;-64
2022/06/05 07:36:57;;;;;;;3.33;1.42;;;27.20;99.90;;;;;;4223037;28;20152;-64
2022/06/05 07:38:59;;;;;;;9.27;3.88;;;27.20;99.90;;;;;;4222763;28;20047;-64
2022/06/05 07:41:02;;;;;;;4.97;2.83;;;27.30;99.90;;;;;;4234457;27;20055;-65
2022/06/05 07:43:03;;;;;;;7.28;2.78;;;27.60;99.90;;;;;;4239285;27;20563;-64
2022/06/05 07:45:05;;;;;;;4.47;2.50;;;27.80;99.90;;;;;;4237505;27;20031;-64
2022/06/05 07:47:08;;;;;;;3.30;2.97;;;27.70;99.90;;;;;;4222472;28;20478;-67
2022/06/05 07:49:10;;;;;;;2.15;1.30;;;27.50;99.90;;;;;;4223941;28;20035;-63
2022/06/05 07:56:10;;;;;;;;;;;27.70;99.90;;;;;;4230296;28;20086;-73
2022/06/05 07:58:11;;;;;;;8.75;1.63;;;27.60;99.90;;;;;;4239985;28;19926;-67
2022/06/05 08:00:12;;;;;;;31.98;4.95;;;26.70;99.90;;;;;;4228678;28;20039;-66
2022/06/05 08:02:19;;;;;;;9.40;1.90;;;26.20;99.90;;;;;;4223778;28;20020;-65
2022/06/05 08:04:20;;;;;;;2.70;1.25;;;26.10;99.90;;;;;;4208605;28;20451;-65
2022/06/05 08:06:21;;;;;;;4.43;1.52;;;25.70;99.90;;;;;;4231637;27;20096;-67
2022/06/05 08:08:22;;;;;;;6.45;1.73;;;25.60;99.90;;;;;;4221892;28;20028;-65
2022/06/05 08:10:23;;;;;;;16.63;3.83;;;25.70;99.90;;;;;;4222914;27;20040;-64
2022/06/05 08:12:31;;;;;;;5.35;1.55;;;25.30;99.90;;;;;;4225801;28;20659;-69
2022/06/05 08:14:34;;;;;;;1.25;1.10;;;25.30;99.90;;;;;;4229572;27;20924;-64
2022/06/05 08:16:39;;;;;;;1.27;1.17;;;25.50;99.90;;;;;;4230473;27;20047;-66
2022/06/05 08:18:41;;;;;;;1.25;0.88;;;25.70;99.90;;;;;;4233371;27;20031;-66
2022/06/05 08:20:42;;;;;;;1.20;1.10;;;25.90;99.90;;;;;;4225691;27;20389;-66
2022/06/05 08:22:43;;;;;;;1.20;1.10;;;26.30;99.90;;;;;;4227285;27;20092;-64
2022/06/05 08:24:45;;;;;;;1.00;0.90;;;26.60;99.90;;;;;;4224694;27;20023;-64
2022/06/05 08:26:46;;;;;;;3.35;1.00;;;26.90;99.90;;;;;;4226030;28;20036;-65
2022/06/05 08:28:48;;;;;;;2.00;1.30;;;26.80;99.90;;;;;;4225530;28;20024;-65
2022/06/05 08:30:49;;;;;;;1.25;1.10;;;26.40;99.90;;;;;;4225811;27;20047;-64
2022/06/05 08:32:50;;;;;;;1.45;0.90;;;26.70;99.90;;;;;;4226509;28;20088;-64
2022/06/05 08:34:51;;;;;;;0.80;0.80;;;27.00;99.90;;;;;;4225897;27;20024;-66
2022/06/05 08:41:26;;;;;;;2.25;0.85;;;27.10;99.90;;;;;;4234638;27;20058;-65
2022/06/05 08:41:39;;;;;;;2.15;1.15;;;27.10;99.90;;;;;;4239880;27;20048;-68
2022/06/05 08:44:04;;;;;;;2.15;1.48;;;26.90;99.90;;;;;;4242456;27;20031;-68
2022/06/05 08:46:15;;;;;;;1.45;1.20;;;26.90;99.90;;;;;;4227634;27;20039;-64
2022/06/05 08:48:27;;;;;;;3.53;1.27;;;26.50;99.90;;;;;;4234984;27;20036;-66
2022/06/05 08:50:43;;;;;;;4.43;1.33;;;26.30;99.90;;;;;;4225759;27;20532;-64
2022/06/05 08:52:58;;;;;;;2.42;1.67;;;25.70;99.90;;;;;;4226835;27;20085;-66
2022/06/05 08:55:06;;;;;;;1.40;1.30;;;26.00;99.90;;;;;;4223873;27;20112;-70
2022/06/05 08:57:51;;;;;;;1.65;1.20;;;26.00;99.90;;;;;;4224391;28;20112;-66
2022/06/05 09:00:04;;;;;;;2.30;1.40;;;25.80;99.90;;;;;;4213816;27;20329;-67
2022/06/05 09:02:33;;;;;;;2.67;1.30;;;26.00;99.90;;;;;;4226483;28;20047;-66
2022/06/05 09:04:55;;;;;;;5.28;1.88;;;25.90;99.90;;;;;;4224825;28;20047;-68
2022/06/05 09:07:06;;;;;;;32.42;4.43;;;25.70;99.90;;;;;;4231241;27;20031;-68
2022/06/05 09:09:37;;;;;;;16.90;3.20;;;25.50;99.90;;;;;;4234267;27;20096;-67
2022/06/05 09:11:51;;;;;;;2.75;1.20;;;25.60;99.90;;;;;;4208232;28;20035;-68
2022/06/05 09:14:03;;;;;;;3.67;1.50;;;25.70;99.90;;;;;;4224997;28;20073;-67
2022/06/05 09:16:08;;;;;;;34.03;4.97;;;25.80;99.90;;;;;;4225350;27;20089;-65
2022/06/05 09:18:22;;;;;;;31.70;4.97;;;25.50;99.90;;;;;;4224600;28;20414;-63
2022/06/05 09:20:43;;;;;;;31.60;4.45;;;25.30;99.90;;;;;;4223240;28;20031;-62
2022/06/05 09:22:59;;;;;;;7.07;1.73;;;25.20;99.90;;;;;;4223946;28;20096;-62
2022/06/05 09:25:22;;;;;;;52.63;7.80;;;24.90;99.90;;;;;;4224729;27;20434;-62
2022/06/05 09:27:35;;;;;;;59.45;8.65;;;25.00;99.90;;;;;;4225202;27;20075;-62
2022/06/05 09:30:02;;;;;;;6.70;2.08;;;24.90;99.90;;;;;;4224040;28;20087;-62
2022/06/05 09:32:38;;;;;;;1.95;1.35;;;25.00;99.90;;;;;;4200858;28;20052;-63
2022/06/05 09:35:09;;;;;;;2.05;0.98;;;25.00;99.90;;;;;;4206934;28;20032;-63
2022/06/05 09:37:35;;;;;;;29.88;5.70;;;25.10;99.90;;;;;;4204226;28;20048;-63
2022/06/05 09:39:43;;;;;;;20.58;4.68;;;25.10;99.90;;;;;;4209242;27;20077;-65
2022/06/05 09:41:44;;;;;;;1.50;0.98;;;25.20;99.90;;;;;;4242529;27;20023;-64
2022/06/05 09:44:30;;;;;;;1.95;1.05;;;25.40;99.90;;;;;;4229680;27;20043;-67
2022/06/05 09:46:43;;;;;;;3.85;2.50;;;25.30;99.90;;;;;;4224029;28;20085;-66
2022/06/05 09:49:01;;;;;;;1.25;1.08;;;25.20;99.90;;;;;;4224575;28;20104;-64
2022/06/05 09:51:09;;;;;;;1.77;1.40;;;25.10;99.90;;;;;;4223057;28;20035;-65
2022/06/05 09:53:25;;;;;;;4.22;1.17;;;25.20;99.90;;;;;;4224252;28;20111;-66
2022/06/05 09:55:51;;;;;;;1.42;1.20;;;25.20;99.90;;;;;;4224205;28;20039;-67
2022/06/05 10:00:45;;;;;;;1.33;1.20;;;25.60;99.90;;;;;;4207157;28;20040;-63
2022/06/05 10:02:49;;;;;;;3.30;1.58;;;25.70;99.90;;;;;;4235185;27;20076;-64
2022/06/05 10:04:51;;;;;;;1.42;1.20;;;25.80;99.90;;;;;;4240765;27;20134;-63
2022/06/05 10:07:05;;;;;;;7.15;1.20;;;25.80;99.90;;;;;;4243318;27;20099;-65
2022/06/05 10:09:19;;;;;;;1.75;1.38;;;25.90;99.90;;;;;;4241104;27;20077;-65
2022/06/05 10:11:38;;;;;;;1.15;1.08;;;25.70;99.90;;;;;;4241941;27;20807;-65
2022/06/05 10:14:34;;;;;;;1.92;0.82;;;25.20;99.90;;;;;;4240242;27;20039;-68
2022/06/05 10:16:45;;;;;;;2.72;1.75;;;25.00;99.90;;;;;;4165226;28;20112;-64
2022/06/05 10:18:51;;;;;;;2.88;1.40;;;25.10;99.90;;;;;;4222807;28;20035;-64
2022/06/05 10:21:09;;;;;;;1.25;0.80;;;25.10;99.90;;;;;;4223287;28;20039;-64
2022/06/05 10:23:20;;;;;;;2.80;1.13;;;25.00;99.90;;;;;;4222730;28;20437;-66
2022/06/05 10:25:45;;;;;;;0.70;0.70;;;25.20;99.90;;;;;;4224859;28;20092;-65
2022/06/05 10:27:50;;;;;;;1.25;0.90;;;25.30;99.90;;;;;;4223894;28;20559;-66
2022/06/05 10:29:56;;;;;;;0.60;0.60;;;25.40;99.90;;;;;;4223987;27;20352;-64
2022/06/05 10:32:10;;;;;;;2.13;0.73;;;25.40;99.90;;;;;;4223903;28;20044;-66
2022/06/05 10:34:36;;;;;;;1.40;1.00;;;25.20;99.90;;;;;;4225860;27;20482;-65
2022/06/05 10:37:15;;;;;;;2.70;0.90;;;25.00;99.90;;;;;;4236992;27;20035;-64
2022/06/05 10:39:19;;;;;;;2.40;0.60;;;24.90;99.90;;;;;;4240185;27;20516;-67
2022/06/05 10:41:36;;;;;;;2.03;0.73;;;24.90;99.90;;;;;;4241337;27;20035;-66
2022/06/05 10:43:38;;;;;;;1.00;0.60;;;25.00;99.90;;;;;;4230025;27;20040;-64
2022/06/05 10:46:05;;;;;;;0.45;0.45;;;25.20;99.90;;;;;;4224925;28;20084;-64
2022/06/05 10:48:24;;;;;;;18.88;3.65;;;25.40;99.90;;;;;;4223333;28;20401;-66
2022/06/05 10:50:38;;;;;;;3.35;0.88;;;24.90;99.90;;;;;;4224913;28;20425;-63
2022/06/05 10:52:53;;;;;;;2.17;1.00;;;25.00;99.90;;;;;;4223242;28;20489;-63
2022/06/05 10:55:34;;;;;;;2.35;0.90;;;25.20;99.90;;;;;;4224482;28;20039;-65
2022/06/05 10:57:38;;;;;;;;;;;25.20;99.90;;;;;;4223744;28;20112;-65
2022/06/05 10:59:57;;;;;;;1.15;0.80;;;25.20;99.90;;;;;;4256430;27;20164;-64
2022/06/05 11:02:21;;;;;;;0.52;0.50;;;25.10;99.90;;;;;;4222986;28;20045;-65
2022/06/05 11:04:57;;;;;;;1.75;0.60;;;25.10;99.90;;;;;;4221723;28;20465;-63
2022/06/05 11:07:54;;;;;;;2.05;0.60;;;25.10;99.90;;;;;;4223010;28;20051;-64
2022/06/05 11:10:05;;;;;;;2.40;0.57;;;25.10;99.90;;;;;;4198247;28;20036;-68
2022/06/05 11:14:46;;;;;;;1.35;1.00;;;24.70;99.90;;;;;;4223139;28;20135;-64
2022/06/05 11:17:13;;;;;;;0.75;0.50;;;24.60;99.90;;;;;;4224040;28;20035;-72
2022/06/05 11:19:45;;;;;;;1.42;0.90;;;24.60;99.90;;;;;;4217340;28;20048;-66